createdAt,value
2022-12-01T00:02:54.985Z,47.13
2022-12-01T00:06:07.866Z,37.65
2022-12-01T00:09:34.517Z,47.00
2022-12-01T00:12:43.683Z,46.15
2022-12-01T00:15:49.420Z,44.22
2022-12-01T00:18:55.264Z,43.15
2022-12-01T00:22:03.929Z,37.72
2022-12-01T00:25:12.878Z,41.67
2022-12-01T00:28:18.998Z,46.88
2022-12-01T00:31:24.521Z,49.05
2022-12-01T00:34:30.656Z,45.08
2022-12-01T00:37:39.297Z,48.47
2022-12-01T00:40:46.045Z,45.70
2022-12-01T00:43:51.233Z,42.92
2022-12-01T00:46:58.934Z,45.30
2022-12-01T00:50:06.969Z,44.67
2022-12-01T00:53:15.428Z,43.03
2022-12-01T00:56:21.326Z,37.67
2022-12-01T00:59:27.087Z,43.83
2022-12-01T01:02:32.424Z,46.45
2022-12-01T01:05:39.113Z,40.25
2022-12-01T01:08:47.596Z,42.33
2022-12-01T01:11:53.705Z,38.72
2022-12-01T01:15:01.347Z,43.45
2022-12-01T01:18:07.606Z,42.58
2022-12-01T01:21:15.730Z,42.85
2022-12-01T01:24:24.469Z,43.25
2022-12-01T01:27:29.686Z,44.13
2022-12-01T01:30:35.984Z,45.95
2022-12-01T01:33:41.260Z,40.65
2022-12-01T01:36:47.002Z,43.58
2022-12-01T01:39:54.931Z,38.53
2022-12-01T01:43:00.916Z,43.75
2022-12-01T01:46:06.176Z,38.92
2022-12-01T01:49:13.993Z,46.35
2022-12-01T01:52:19.518Z,46.55
2022-12-01T01:55:27.935Z,41.25
2022-12-01T01:58:33.586Z,41.72
2022-12-01T02:01:39.569Z,43.78
2022-12-01T02:04:47.261Z,40.25
2022-12-01T02:07:54.244Z,40.85
2022-12-01T02:11:17.073Z,40.38
2022-12-01T02:17:38.902Z,36.63
2022-12-01T02:21:11.726Z,41.55
2022-12-01T02:24:31.790Z,43.50
2022-12-01T02:27:51.785Z,44.03
2022-12-01T02:31:02.085Z,41.40
2022-12-01T02:34:13.097Z,45.67
2022-12-01T02:37:21.560Z,44.42
2022-12-01T02:40:30.081Z,39.10
2022-12-01T02:43:36.439Z,44.50
2022-12-01T02:46:47.854Z,45.08
2022-12-01T02:49:55.007Z,41.78
2022-12-01T02:53:01.490Z,42.25
2022-12-01T02:56:09.921Z,48.05
2022-12-01T02:59:17.645Z,44.83
2022-12-01T03:02:30.892Z,41.38
2022-12-01T03:05:41.632Z,41.17
2022-12-01T03:08:51.785Z,43.25
2022-12-01T03:12:01.217Z,41.97
2022-12-01T03:15:08.941Z,43.35
2022-12-01T03:18:22.559Z,40.42
2022-12-01T03:21:31.239Z,45.95
2022-12-01T03:24:37.185Z,43.70
2022-12-01T03:28:06.711Z,42.83
2022-12-01T03:31:12.112Z,41.78
2022-12-01T03:34:25.645Z,37.92
2022-12-01T03:37:34.155Z,42.70
2022-12-01T03:40:41.090Z,44.03
2022-12-01T03:43:49.673Z,42.33
2022-12-01T03:46:56.267Z,40.78
2022-12-01T03:50:07.659Z,42.80
2022-12-01T03:53:14.610Z,41.05
2022-12-01T03:56:23.541Z,45.17
2022-12-01T03:59:32.001Z,40.85
2022-12-01T04:02:38.502Z,38.30
2022-12-01T04:05:46.770Z,39.85
2022-12-01T04:08:53.364Z,43.05
2022-12-01T04:12:12.198Z,41.00
2022-12-01T04:15:18.607Z,37.63
2022-12-01T04:18:26.038Z,43.05
2022-12-01T04:21:34.313Z,40.70
2022-12-01T04:24:39.626Z,45.20
2022-12-01T04:27:47.998Z,43.78
2022-12-01T04:30:53.248Z,38.45
2022-12-01T04:33:59.418Z,42.60
2022-12-01T04:37:07.989Z,41.92
2022-12-01T04:40:14.650Z,39.38
2022-12-01T04:43:19.758Z,40.53
2022-12-01T04:46:25.932Z,38.80
2022-12-01T04:49:30.988Z,43.03
2022-12-01T04:52:40.424Z,41.05
2022-12-01T04:55:45.785Z,41.88
2022-12-01T04:58:51.526Z,40.88
2022-12-01T05:01:57.377Z,44.00
2022-12-01T05:05:03.116Z,41.35
2022-12-01T05:08:10.815Z,40.80
2022-12-01T05:11:17.337Z,43.70
2022-12-01T05:14:22.684Z,42.33
2022-12-01T05:17:32.705Z,37.40
2022-12-01T05:20:54.031Z,40.70
2022-12-01T05:24:02.430Z,41.45
2022-12-01T05:27:07.467Z,39.80
2022-12-01T05:30:15.733Z,40.10
2022-12-01T05:33:20.909Z,35.55
2022-12-01T05:36:26.933Z,40.83
2022-12-01T05:39:35.029Z,41.67
2022-12-01T05:42:41.249Z,42.08
2022-12-01T05:45:49.958Z,38.95
2022-12-01T05:48:55.661Z,41.63
2022-12-01T05:52:00.775Z,38.67
2022-12-01T05:55:09.679Z,34.75
2022-12-01T05:58:14.610Z,39.97
2022-12-01T06:01:22.295Z,40.47
2022-12-01T06:04:29.625Z,43.63
2022-12-01T06:07:35.884Z,40.20
2022-12-01T06:10:43.456Z,38.95
2022-12-01T06:13:49.136Z,41.78
2022-12-01T06:16:54.728Z,37.65
2022-12-01T06:20:02.505Z,35.78
2022-12-01T06:23:07.599Z,42.67
2022-12-01T06:26:15.785Z,39.53
2022-12-01T06:29:20.649Z,42.50
2022-12-01T06:32:26.035Z,41.00
2022-12-01T06:35:30.836Z,41.63
2022-12-01T06:38:37.195Z,41.65
2022-12-01T06:41:44.680Z,41.92
2022-12-01T06:44:50.056Z,47.13
2022-12-01T06:47:56.248Z,41.72
2022-12-01T06:51:01.998Z,39.72
2022-12-01T06:54:08.529Z,37.30
2022-12-01T06:57:17.165Z,43.67
2022-12-01T07:00:22.852Z,41.08
2022-12-01T07:03:28.510Z,40.58
2022-12-01T07:06:33.710Z,37.22
2022-12-01T07:09:39.177Z,40.15
2022-12-01T07:12:46.967Z,37.10
2022-12-01T07:15:52.782Z,39.40
2022-12-01T07:19:00.093Z,40.72
2022-12-01T07:22:06.119Z,43.92
2022-12-01T07:25:13.025Z,38.85
2022-12-01T07:28:22.813Z,40.45
2022-12-01T07:31:28.439Z,41.10
2022-12-01T07:34:34.462Z,41.97
2022-12-01T07:37:41.889Z,40.67
2022-12-01T07:40:47.669Z,38.67
2022-12-01T07:43:55.608Z,39.10
2022-12-01T07:47:01.328Z,37.17
2022-12-01T07:50:10.353Z,42.08
2022-12-01T07:53:15.716Z,45.65
2022-12-01T07:56:21.103Z,43.30
2022-12-01T07:59:29.529Z,51.17
2022-12-01T08:02:34.972Z,57.85
2022-12-01T08:05:41.550Z,58.88
2022-12-01T08:08:46.828Z,61.22
2022-12-01T08:11:52.205Z,47.22
2022-12-01T08:14:59.779Z,53.08
2022-12-01T08:18:06.391Z,50.22
2022-12-01T08:21:13.039Z,53.53
2022-12-01T08:24:18.451Z,47.63
2022-12-01T08:27:23.491Z,48.30
2022-12-01T08:30:31.624Z,42.28
2022-12-01T08:33:36.857Z,43.83
2022-12-01T08:36:43.077Z,42.25
2022-12-01T08:39:48.692Z,44.50
2022-12-01T08:42:54.993Z,42.97
2022-12-01T08:46:07.288Z,39.67
2022-12-01T08:49:12.737Z,45.47
2022-12-01T08:52:17.717Z,45.10
2022-12-01T08:55:24.791Z,51.47
2022-12-01T08:58:37.505Z,41.35
2022-12-01T09:01:57.753Z,44.47
2022-12-01T09:05:05.253Z,57.47
2022-12-01T09:08:22.888Z,57.58
2022-12-01T09:11:28.093Z,43.33
2022-12-01T09:14:34.034Z,46.67
2022-12-01T09:17:41.714Z,44.42
2022-12-01T09:20:56.015Z,47.28
2022-12-01T09:24:01.557Z,42.22
2022-12-01T09:27:07.508Z,43.88
2022-12-01T09:30:12.834Z,45.25
2022-12-01T09:33:20.803Z,47.92
2022-12-01T09:36:26.340Z,43.55
2022-12-01T09:39:32.011Z,37.33
2022-12-01T09:42:37.822Z,41.03
2022-12-01T09:45:46.237Z,41.17
2022-12-01T09:48:55.553Z,40.35
2022-12-01T09:52:02.673Z,48.17
2022-12-01T09:55:10.328Z,40.90
2022-12-01T09:58:18.649Z,37.53
2022-12-01T10:01:27.212Z,36.28
2022-12-01T10:04:39.320Z,59.65
2022-12-01T10:07:47.777Z,43.20
2022-12-01T10:10:58.262Z,42.20
2022-12-01T10:14:03.888Z,39.65
2022-12-01T10:17:15.496Z,38.53
2022-12-01T10:20:27.786Z,34.15
2022-12-01T10:23:39.951Z,36.28
2022-12-01T10:26:48.244Z,40.13
2022-12-01T10:30:00.145Z,38.50
2022-12-01T10:33:11.314Z,40.55
2022-12-01T10:36:19.686Z,42.05
2022-12-01T10:39:28.176Z,39.83
2022-12-01T10:42:35.733Z,40.75
2022-12-01T10:45:44.208Z,48.95
2022-12-01T10:48:55.673Z,48.05
2022-12-01T10:52:03.862Z,43.72
2022-12-01T10:55:27.128Z,42.13
2022-12-01T10:58:33.399Z,36.85
2022-12-01T11:01:38.840Z,45.28
2022-12-01T11:04:49.863Z,44.45
2022-12-01T11:07:58.769Z,39.28
2022-12-01T11:11:04.250Z,38.40
2022-12-01T11:14:18.886Z,39.80
2022-12-01T11:17:32.453Z,39.60
2022-12-01T11:20:40.343Z,39.17
2022-12-01T11:23:51.320Z,45.65
2022-12-01T11:26:56.625Z,39.70
2022-12-01T11:30:05.299Z,38.92
2022-12-01T11:33:17.521Z,41.42
2022-12-01T11:36:24.074Z,41.47
2022-12-01T11:39:34.910Z,37.97
2022-12-01T11:42:41.505Z,41.03
2022-12-01T11:45:49.235Z,44.53
2022-12-01T11:49:00.308Z,42.85
2022-12-01T11:52:19.444Z,43.90
2022-12-01T11:55:28.578Z,40.47
2022-12-01T11:58:35.534Z,43.13
2022-12-01T12:01:45.167Z,38.30
2022-12-01T12:05:08.573Z,39.47
2022-12-01T12:08:18.999Z,39.85
2022-12-01T12:11:31.780Z,39.25
2022-12-01T12:14:46.535Z,41.33
2022-12-01T12:18:01.845Z,44.33
2022-12-01T12:21:12.017Z,44.97
2022-12-01T12:24:31.057Z,47.20
2022-12-01T12:27:44.960Z,55.65
2022-12-01T12:30:57.772Z,50.38
2022-12-01T12:34:09.935Z,59.15
2022-12-01T12:37:24.770Z,47.15
2022-12-01T12:40:40.070Z,44.22
2022-12-01T12:43:54.777Z,47.15
2022-12-01T12:47:06.168Z,47.25
2022-12-01T12:50:26.611Z,52.75
2022-12-01T12:53:34.667Z,46.33
2022-12-01T12:56:40.210Z,54.17
2022-12-01T12:59:54.428Z,52.03
2022-12-01T13:03:04.936Z,52.03
2022-12-01T13:06:12.258Z,49.78
2022-12-01T13:09:19.428Z,56.50
2022-12-01T13:12:28.186Z,52.05
2022-12-01T13:15:37.175Z,48.00
2022-12-01T13:18:43.838Z,39.50
2022-12-01T13:21:51.438Z,41.33
2022-12-01T13:24:56.641Z,45.20
2022-12-01T13:28:03.373Z,40.05
2022-12-01T13:31:11.942Z,47.17
2022-12-01T13:34:25.036Z,40.90
2022-12-01T13:37:31.078Z,44.47
2022-12-01T13:40:37.105Z,48.38
2022-12-01T13:43:51.663Z,55.05
2022-12-01T13:47:04.110Z,55.53
2022-12-01T13:50:24.038Z,56.28
2022-12-01T13:53:34.157Z,45.83
2022-12-01T13:56:41.233Z,56.13
2022-12-01T14:00:07.572Z,49.83
2022-12-01T14:03:27.584Z,55.80
2022-12-01T14:06:46.568Z,46.33
2022-12-01T14:09:52.297Z,50.80
2022-12-01T14:12:59.869Z,47.53
2022-12-01T14:16:08.483Z,51.60
2022-12-01T14:19:31.908Z,44.50
2022-12-01T14:22:42.613Z,43.63
2022-12-01T14:26:06.280Z,39.92
2022-12-01T14:29:29.361Z,49.20
2022-12-01T14:32:37.540Z,43.30
2022-12-01T14:35:43.971Z,43.60
2022-12-01T14:38:52.680Z,47.83
2022-12-01T14:41:59.290Z,41.13
2022-12-01T14:45:08.570Z,43.38
2022-12-01T14:48:15.457Z,43.85
2022-12-01T14:51:26.489Z,46.15
2022-12-01T14:54:36.337Z,43.30
2022-12-01T14:57:45.331Z,44.10
2022-12-01T15:00:58.271Z,43.03
2022-12-01T15:04:05.643Z,41.55
2022-12-01T15:07:10.486Z,42.97
2022-12-01T15:10:22.589Z,40.92
2022-12-01T15:13:30.981Z,45.75
2022-12-01T15:16:43.598Z,47.10
2022-12-01T15:19:49.203Z,44.40
2022-12-01T15:22:57.281Z,41.50
2022-12-01T15:26:05.292Z,48.38
2022-12-01T15:29:17.953Z,47.70
2022-12-01T15:32:24.571Z,45.90
2022-12-01T15:35:30.876Z,51.38
2022-12-01T15:38:37.308Z,46.05
2022-12-01T15:41:46.100Z,46.60
2022-12-01T15:45:00.559Z,46.17
2022-12-01T15:48:17.995Z,51.30
2022-12-01T15:51:27.805Z,49.50
2022-12-01T15:54:35.020Z,43.67
2022-12-01T15:57:42.642Z,50.50
2022-12-01T16:00:55.652Z,53.63
2022-12-01T16:04:03.716Z,49.53
2022-12-01T16:07:10.906Z,50.70
2022-12-01T16:10:27.811Z,48.47
2022-12-01T16:13:44.748Z,46.65
2022-12-01T16:16:52.182Z,44.55
2022-12-01T16:20:12.413Z,50.55
2022-12-01T16:23:18.509Z,54.13
2022-12-01T16:26:23.943Z,45.05
2022-12-01T16:29:34.296Z,44.03
2022-12-01T16:32:41.255Z,49.35
2022-12-01T16:35:46.705Z,37.85
2022-12-01T16:38:53.436Z,46.28
2022-12-01T16:42:02.203Z,45.45
2022-12-01T16:45:13.883Z,37.95
2022-12-01T16:48:20.353Z,41.05
2022-12-01T16:51:35.437Z,43.22
2022-12-01T16:54:47.923Z,41.22
2022-12-01T16:57:53.875Z,44.33
2022-12-01T17:01:07.549Z,40.70
2022-12-01T17:04:15.234Z,46.92
2022-12-01T17:07:20.441Z,41.05
2022-12-01T17:10:26.425Z,40.60
2022-12-01T17:13:31.885Z,39.28
2022-12-01T17:16:41.057Z,44.40
2022-12-01T17:19:46.320Z,38.58
2022-12-01T17:22:52.137Z,40.85
2022-12-01T17:25:58.814Z,41.03
2022-12-01T17:29:06.403Z,47.75
2022-12-01T17:32:16.973Z,36.78
2022-12-01T17:35:23.037Z,42.88
2022-12-01T17:38:28.482Z,38.25
2022-12-01T17:41:38.568Z,41.70
2022-12-01T17:44:43.817Z,42.78
2022-12-01T17:47:53.656Z,43.45
2022-12-01T17:51:01.650Z,37.63
2022-12-01T17:54:07.644Z,39.72
2022-12-01T17:57:13.087Z,40.65
2022-12-01T18:00:19.117Z,41.90
2022-12-01T18:03:28.017Z,37.13
2022-12-01T18:06:35.667Z,41.58
2022-12-01T18:09:41.295Z,44.30
2022-12-01T18:12:47.191Z,42.95
2022-12-01T18:15:56.537Z,57.75
2022-12-01T18:19:05.516Z,52.90
2022-12-01T18:22:10.841Z,43.42
2022-12-01T18:25:16.743Z,43.60
2022-12-01T18:28:26.754Z,39.95
2022-12-01T18:31:33.207Z,45.95
2022-12-01T18:34:43.178Z,38.83
2022-12-01T18:37:48.626Z,42.85
2022-12-01T18:40:55.214Z,38.60
2022-12-01T18:44:00.728Z,40.30
2022-12-01T18:47:06.815Z,38.45
2022-12-01T18:50:15.801Z,38.63
2022-12-01T18:53:23.018Z,40.45
2022-12-01T18:56:29.234Z,36.78
2022-12-01T18:59:34.333Z,39.88
2022-12-01T19:02:42.535Z,52.20
2022-12-01T19:05:53.358Z,181.65
2022-12-01T19:08:59.440Z,183.23
2022-12-01T19:12:04.299Z,119.70
2022-12-01T19:15:11.345Z,103.85
2022-12-01T19:18:17.616Z,91.50
2022-12-01T19:21:25.673Z,71.57
2022-12-01T19:24:33.337Z,46.38
2022-12-01T19:27:39.286Z,38.45
2022-12-01T19:30:48.172Z,36.63
2022-12-01T19:33:54.868Z,37.33
2022-12-01T19:37:03.550Z,34.85
2022-12-01T19:40:12.434Z,35.95
2022-12-01T19:43:17.808Z,41.30
2022-12-01T19:46:27.534Z,40.60
2022-12-01T19:49:32.635Z,36.55
2022-12-01T19:52:41.712Z,41.00
2022-12-01T19:55:48.140Z,37.15
2022-12-01T19:58:54.189Z,40.25
2022-12-01T20:02:01.538Z,47.53
2022-12-01T20:05:09.852Z,44.75
2022-12-01T20:08:19.295Z,42.65
2022-12-01T20:11:25.967Z,35.15
2022-12-01T20:14:31.122Z,39.20
2022-12-01T20:17:38.269Z,39.55
2022-12-01T20:20:44.792Z,33.05
2022-12-01T20:24:01.835Z,34.53
2022-12-01T20:27:06.865Z,39.15
2022-12-01T20:30:16.285Z,40.03
2022-12-01T20:33:24.281Z,40.47
2022-12-01T20:36:30.468Z,43.20
2022-12-01T20:39:41.599Z,40.63
2022-12-01T20:42:47.897Z,36.83
2022-12-01T20:45:53.504Z,38.10
2022-12-01T20:49:07.446Z,38.72
2022-12-01T20:52:14.777Z,38.80
2022-12-01T20:55:24.824Z,37.00
2022-12-01T20:58:33.287Z,37.95
2022-12-01T21:01:45.581Z,35.58
2022-12-01T21:04:55.115Z,40.17
2022-12-01T21:08:10.016Z,38.53
2022-12-01T21:11:41.905Z,38.25
2022-12-01T21:14:50.702Z,37.58
2022-12-01T21:18:01.160Z,38.65
2022-12-01T21:21:26.660Z,42.15
2022-12-01T21:24:42.164Z,35.17
2022-12-01T21:27:54.018Z,40.88
2022-12-01T21:31:02.078Z,39.17
2022-12-01T21:34:12.910Z,36.08
2022-12-01T21:37:22.473Z,38.83
2022-12-01T21:40:28.661Z,33.85
2022-12-01T21:43:38.792Z,38.75
2022-12-01T21:46:47.934Z,38.47
2022-12-01T21:49:56.809Z,42.08
2022-12-01T21:53:02.516Z,39.65
2022-12-01T21:56:10.060Z,37.88
2022-12-01T21:59:22.482Z,40.00
2022-12-01T22:02:32.764Z,57.90
2022-12-01T22:05:41.541Z,294.85
2022-12-01T22:08:48.698Z,209.30
2022-12-01T22:11:58.808Z,87.50
2022-12-01T22:15:17.212Z,50.97
2022-12-01T22:18:24.963Z,45.28
2022-12-01T22:21:40.473Z,36.25
2022-12-01T22:24:47.034Z,34.88
2022-12-01T22:27:52.657Z,32.83
2022-12-01T22:31:04.612Z,35.05
2022-12-01T22:34:10.296Z,34.05
2022-12-01T22:37:17.716Z,44.80
2022-12-01T22:40:36.827Z,40.20
2022-12-01T22:43:48.476Z,42.03
2022-12-01T22:46:56.837Z,45.30
2022-12-01T22:50:04.567Z,35.53
2022-12-01T22:53:15.069Z,31.27
2022-12-01T22:56:27.480Z,31.15
2022-12-01T22:59:34.661Z,29.73
2022-12-01T23:02:44.059Z,28.90
2022-12-01T23:05:49.695Z,30.17
2022-12-01T23:08:56.034Z,34.40
2022-12-01T23:12:03.727Z,25.73
2022-12-01T23:15:26.157Z,27.55
2022-12-01T23:18:34.916Z,27.08
2022-12-01T23:21:43.961Z,25.08
2022-12-01T23:24:49.413Z,24.80
2022-12-01T23:27:56.108Z,25.10
2022-12-01T23:31:02.266Z,25.08
2022-12-01T23:34:17.468Z,23.58
2022-12-01T23:37:34.605Z,26.42
2022-12-01T23:40:45.600Z,26.83
2022-12-01T23:43:52.918Z,32.55
2022-12-01T23:47:00.262Z,22.10
2022-12-01T23:50:09.871Z,24.23
2022-12-01T23:53:24.369Z,26.10
2022-12-01T23:56:35.945Z,24.75
2022-12-01T23:59:43.503Z,29.95
